createdAt,value
2023-02-15T00:00:03.264Z,19.90
2023-02-15T00:02:35.942Z,20.80
2023-02-15T00:05:07.612Z,19.95
2023-02-15T00:07:39.867Z,21.55
2023-02-15T00:10:12.638Z,18.08
2023-02-15T00:12:43.168Z,21.08
2023-02-15T00:15:14.256Z,21.40
2023-02-15T00:17:44.922Z,20.27
2023-02-15T00:20:18.363Z,19.33
2023-02-15T00:22:51.536Z,20.95
2023-02-15T00:25:21.950Z,22.92
2023-02-15T00:27:52.206Z,22.00
2023-02-15T00:30:24.048Z,20.30
2023-02-15T00:32:54.381Z,20.67
2023-02-15T00:35:24.854Z,22.77
2023-02-15T00:38:02.150Z,23.58
2023-02-15T00:40:35.004Z,24.17
2023-02-15T00:43:05.385Z,23.48
2023-02-15T00:45:36.670Z,23.40
2023-02-15T00:48:07.952Z,21.58
2023-02-15T00:50:38.609Z,26.08
2023-02-15T00:53:11.261Z,24.25
2023-02-15T00:55:42.584Z,19.90
2023-02-15T00:58:13.935Z,22.60
2023-02-15T01:00:45.896Z,22.17
2023-02-15T01:03:17.384Z,22.20
2023-02-15T01:05:50.386Z,20.40
2023-02-15T01:08:22.653Z,23.83
2023-02-15T01:10:52.808Z,20.02
2023-02-15T01:13:24.153Z,24.10
2023-02-15T01:15:58.510Z,23.15
2023-02-15T01:18:30.127Z,24.42
2023-02-15T01:21:03.208Z,22.75
2023-02-15T01:23:36.932Z,23.48
2023-02-15T01:26:07.672Z,22.33
2023-02-15T01:28:38.656Z,21.90
2023-02-15T01:31:12.097Z,23.48
2023-02-15T01:33:44.172Z,24.70
2023-02-15T01:36:14.671Z,24.27
2023-02-15T01:38:47.221Z,23.10
2023-02-15T01:41:24.597Z,25.63
2023-02-15T01:43:57.119Z,22.70
2023-02-15T01:46:34.681Z,23.52
2023-02-15T01:49:12.766Z,22.77
2023-02-15T01:51:46.363Z,21.90
2023-02-15T01:54:27.404Z,23.77
2023-02-15T01:57:01.661Z,25.45
2023-02-15T01:59:37.494Z,23.77
2023-02-15T02:02:11.237Z,23.15
2023-02-15T02:04:47.251Z,27.17
2023-02-15T02:07:20.494Z,24.80
2023-02-15T02:09:52.520Z,22.63
2023-02-15T02:12:28.039Z,26.27
2023-02-15T02:15:00.371Z,23.85
2023-02-15T02:18:06.290Z,25.23
2023-02-15T02:21:02.952Z,24.27
2023-02-15T02:23:48.251Z,24.55
2023-02-15T02:27:03.179Z,24.63
2023-02-15T02:30:22.856Z,21.90
2023-02-15T02:33:16.585Z,22.55
2023-02-15T02:35:59.274Z,25.13
2023-02-15T02:38:42.914Z,23.25
2023-02-15T02:41:20.592Z,24.33
2023-02-15T02:43:55.780Z,22.80
2023-02-15T02:46:54.016Z,28.33
2023-02-15T02:49:39.613Z,25.05
2023-02-15T02:52:30.571Z,25.40
2023-02-15T02:55:04.063Z,24.95
2023-02-15T02:57:35.803Z,22.77
2023-02-15T03:00:10.655Z,27.52
2023-02-15T03:02:46.503Z,22.70
2023-02-15T03:05:23.126Z,23.27
2023-02-15T03:07:55.498Z,25.10
2023-02-15T03:10:28.923Z,28.70
2023-02-15T03:13:00.334Z,24.55
2023-02-15T03:15:49.998Z,25.95
2023-02-15T03:18:23.130Z,26.02
2023-02-15T03:20:54.928Z,22.85
2023-02-15T03:23:28.339Z,24.48
2023-02-15T03:26:03.509Z,28.92
2023-02-15T03:28:41.614Z,28.25
2023-02-15T03:31:15.537Z,28.30
2023-02-15T03:33:59.369Z,25.23
2023-02-15T03:36:34.262Z,29.83
2023-02-15T03:39:15.027Z,25.45
2023-02-15T03:41:59.035Z,26.63
2023-02-15T03:44:32.990Z,28.33
2023-02-15T03:47:09.299Z,28.88
2023-02-15T03:49:47.234Z,29.10
2023-02-15T03:52:19.437Z,28.25
2023-02-15T03:54:50.169Z,29.60
2023-02-15T03:57:43.140Z,29.92
2023-02-15T04:00:34.428Z,31.23
2023-02-15T04:03:25.057Z,29.02
2023-02-15T04:05:56.682Z,31.27
2023-02-15T04:08:47.192Z,32.22
2023-02-15T04:11:16.404Z,32.47
2023-02-15T04:13:48.272Z,27.67
2023-02-15T04:16:16.970Z,30.38
2023-02-15T04:19:05.521Z,28.23
2023-02-15T04:21:54.240Z,29.45
2023-02-15T04:24:42.798Z,31.23
2023-02-15T04:27:21.528Z,30.33
2023-02-15T04:29:53.570Z,31.40
2023-02-15T04:32:23.738Z,32.78
2023-02-15T04:34:55.047Z,34.65
2023-02-15T04:37:25.386Z,30.23
2023-02-15T04:39:55.393Z,31.02
2023-02-15T04:42:25.740Z,31.27
2023-02-15T04:44:58.269Z,29.15
2023-02-15T04:47:28.610Z,30.27
2023-02-15T04:49:59.650Z,32.05
2023-02-15T04:52:32.039Z,29.95
2023-02-15T04:55:02.522Z,31.42
2023-02-15T04:57:32.313Z,32.95
2023-02-15T05:00:04.535Z,29.52
2023-02-15T05:02:34.966Z,31.70
2023-02-15T05:05:04.938Z,30.50
2023-02-15T05:07:35.846Z,32.70
2023-02-15T05:10:06.802Z,30.10
2023-02-15T05:12:39.782Z,30.25
2023-02-15T05:15:14.488Z,30.50
2023-02-15T05:17:46.079Z,34.78
2023-02-15T05:20:17.014Z,33.47
2023-02-15T05:22:49.773Z,33.00
2023-02-15T05:25:38.922Z,30.00
2023-02-15T05:28:24.944Z,32.63
2023-02-15T05:31:07.608Z,30.70
2023-02-15T05:33:38.345Z,29.98
2023-02-15T05:36:11.553Z,29.23
2023-02-15T05:38:42.726Z,29.63
2023-02-15T05:41:14.497Z,30.77
2023-02-15T05:43:46.122Z,27.23
2023-02-15T05:46:19.293Z,29.88
2023-02-15T05:48:50.007Z,29.95
2023-02-15T05:51:23.209Z,29.13
2023-02-15T05:53:53.585Z,27.13
2023-02-15T05:56:25.474Z,30.65
2023-02-15T05:58:56.878Z,29.67
2023-02-15T06:01:31.096Z,31.85
2023-02-15T06:04:02.075Z,30.33
2023-02-15T06:06:35.828Z,31.63
2023-02-15T06:09:07.426Z,31.05
2023-02-15T06:11:38.002Z,31.88
2023-02-15T06:14:08.462Z,31.02
2023-02-15T06:16:52.947Z,29.20
2023-02-15T06:19:24.273Z,31.40
2023-02-15T06:21:55.049Z,29.88
2023-02-15T06:24:25.466Z,32.42
2023-02-15T06:26:55.668Z,29.30
2023-02-15T06:29:26.155Z,31.23
2023-02-15T06:31:58.381Z,33.47
2023-02-15T06:34:28.686Z,36.67
2023-02-15T06:36:59.397Z,30.25
2023-02-15T06:39:30.486Z,30.95
2023-02-15T06:42:02.386Z,33.42
2023-02-15T06:44:33.057Z,31.88
2023-02-15T06:47:05.718Z,34.78
2023-02-15T06:49:36.788Z,36.47
2023-02-15T06:52:07.313Z,34.13
2023-02-15T06:54:44.991Z,35.10
2023-02-15T06:57:15.765Z,33.60
2023-02-15T06:59:46.176Z,33.92
2023-02-15T07:02:21.628Z,36.22
2023-02-15T07:04:52.134Z,34.22
2023-02-15T07:07:23.514Z,34.03
2023-02-15T07:09:53.795Z,33.72
2023-02-15T07:12:41.304Z,34.88
2023-02-15T07:15:14.778Z,34.95
2023-02-15T07:17:48.894Z,33.55
2023-02-15T07:20:23.587Z,33.20
2023-02-15T07:22:54.868Z,33.65
2023-02-15T07:25:26.581Z,34.45
2023-02-15T07:28:00.052Z,32.15
2023-02-15T07:30:31.491Z,38.00
2023-02-15T07:33:22.738Z,34.35
2023-02-15T07:35:54.527Z,34.28
2023-02-15T07:38:27.474Z,35.25
2023-02-15T07:41:03.745Z,32.25
2023-02-15T07:43:37.964Z,33.40
2023-02-15T07:46:13.859Z,34.17
2023-02-15T07:48:48.186Z,35.05
2023-02-15T07:51:20.648Z,36.30
2023-02-15T07:53:57.658Z,34.17
2023-02-15T07:56:28.524Z,35.70
2023-02-15T07:59:07.425Z,35.13
2023-02-15T08:01:41.608Z,39.40
2023-02-15T08:04:14.672Z,38.17
2023-02-15T08:06:46.724Z,38.55
2023-02-15T08:09:19.329Z,36.33
2023-02-15T08:11:51.138Z,39.25
2023-02-15T08:14:23.889Z,37.35
2023-02-15T08:16:57.971Z,33.22
2023-02-15T08:19:32.964Z,34.00
2023-02-15T08:22:05.584Z,32.35
2023-02-15T08:24:38.461Z,39.00
2023-02-15T08:27:09.758Z,36.50
2023-02-15T08:29:43.990Z,31.20
2023-02-15T08:32:15.401Z,33.38
2023-02-15T08:34:47.614Z,30.23
2023-02-15T08:37:17.886Z,30.73
2023-02-15T08:39:49.136Z,29.60
2023-02-15T08:42:22.312Z,31.40
2023-02-15T08:44:54.603Z,29.30
2023-02-15T08:47:28.823Z,31.90
2023-02-15T08:50:02.146Z,29.98
2023-02-15T08:52:39.296Z,31.90
2023-02-15T08:55:27.224Z,29.65
2023-02-15T08:58:07.515Z,28.55
2023-02-15T09:00:46.536Z,29.88
2023-02-15T09:03:28.737Z,29.50
2023-02-15T09:06:25.233Z,31.63
2023-02-15T09:09:03.884Z,29.73
2023-02-15T09:11:40.236Z,25.95
2023-02-15T09:14:14.639Z,28.85
2023-02-15T09:16:47.598Z,24.80
2023-02-15T09:19:19.203Z,28.13
2023-02-15T09:21:50.681Z,28.85
2023-02-15T09:24:20.795Z,23.90
2023-02-15T09:26:51.004Z,29.02
2023-02-15T09:29:21.576Z,27.58
2023-02-15T09:31:58.372Z,24.83
2023-02-15T09:34:36.886Z,27.10
2023-02-15T09:42:23.864Z,23.10
2023-02-15T09:45:28.068Z,23.33
2023-02-15T09:48:33.521Z,24.83
2023-02-15T09:55:39.314Z,21.33
2023-02-15T09:58:20.255Z,21.75
2023-02-15T10:00:57.385Z,22.13
2023-02-15T10:03:45.202Z,24.02
2023-02-15T10:06:26.956Z,24.98
2023-02-15T10:09:12.595Z,25.73
2023-02-15T10:11:59.456Z,22.55
2023-02-15T10:14:51.798Z,26.90
2023-02-15T10:17:34.192Z,23.20
2023-02-15T10:20:13.908Z,24.52
2023-02-15T10:22:57.629Z,24.38
2023-02-15T10:25:35.727Z,24.42
2023-02-15T10:28:09.296Z,24.90
2023-02-15T10:30:47.396Z,23.95
2023-02-15T10:33:32.680Z,21.98
2023-02-15T10:36:14.061Z,25.13
2023-02-15T10:38:46.197Z,22.08
2023-02-15T10:41:35.579Z,25.00
2023-02-15T10:44:26.570Z,24.33
2023-02-15T10:47:25.280Z,25.38
2023-02-15T10:50:09.985Z,24.20
2023-02-15T10:53:28.802Z,23.95
2023-02-15T10:56:06.976Z,21.27
2023-02-15T10:58:51.480Z,23.02
2023-02-15T11:01:30.558Z,24.60
2023-02-15T11:04:32.996Z,22.90
2023-02-15T11:07:06.086Z,24.92
2023-02-15T11:09:41.307Z,22.30
2023-02-15T11:12:16.966Z,25.45
2023-02-15T11:14:51.791Z,23.27
2023-02-15T11:17:28.406Z,22.52
2023-02-15T11:20:05.609Z,24.88
2023-02-15T11:22:36.045Z,24.05
2023-02-15T11:25:17.310Z,23.17
2023-02-15T11:27:48.913Z,20.08
2023-02-15T11:30:21.558Z,20.50
2023-02-15T11:32:59.302Z,22.20
2023-02-15T11:35:34.413Z,23.05
2023-02-15T11:38:09.651Z,24.17
2023-02-15T11:40:43.689Z,23.88
2023-02-15T11:43:20.117Z,22.42
2023-02-15T11:45:49.482Z,23.23
2023-02-15T11:48:20.095Z,23.85
2023-02-15T11:50:49.547Z,25.27
2023-02-15T11:53:22.273Z,21.52
2023-02-15T11:55:53.054Z,20.95
2023-02-15T11:58:32.559Z,24.42
2023-02-15T12:01:06.670Z,25.20
2023-02-15T12:03:49.339Z,21.67
2023-02-15T12:06:29.742Z,22.30
2023-02-15T12:09:07.338Z,21.35
2023-02-15T12:11:38.942Z,22.92
2023-02-15T12:14:10.198Z,23.55
2023-02-15T12:16:45.329Z,24.05
2023-02-15T12:19:31.148Z,22.70
2023-02-15T12:22:01.591Z,23.77
2023-02-15T12:24:33.096Z,22.33
2023-02-15T12:27:05.956Z,22.95
2023-02-15T12:29:42.783Z,23.67
2023-02-15T12:32:20.442Z,21.63
2023-02-15T12:34:52.585Z,20.60
2023-02-15T12:37:26.331Z,20.13
2023-02-15T12:39:57.948Z,22.58
2023-02-15T12:42:30.228Z,22.85
2023-02-15T12:45:02.474Z,23.30
2023-02-15T12:47:33.609Z,23.85
2023-02-15T12:50:19.582Z,21.42
2023-02-15T12:52:51.889Z,21.38
2023-02-15T12:55:25.523Z,21.10
2023-02-15T12:58:09.448Z,20.70
2023-02-15T13:00:38.826Z,21.67
2023-02-15T13:03:18.267Z,21.73
2023-02-15T13:05:53.065Z,21.23
2023-02-15T13:08:24.467Z,22.47
2023-02-15T13:10:59.173Z,21.80
2023-02-15T13:13:31.636Z,20.60
2023-02-15T13:16:04.481Z,18.90
2023-02-15T13:18:37.953Z,20.23
2023-02-15T13:21:14.242Z,19.57
2023-02-15T13:23:49.474Z,18.63
2023-02-15T13:26:22.257Z,19.30
2023-02-15T13:28:55.504Z,20.27
2023-02-15T13:31:28.950Z,17.90
2023-02-15T13:34:03.074Z,19.73
2023-02-15T13:36:42.523Z,22.30
2023-02-15T13:39:23.584Z,20.73
2023-02-15T13:42:00.752Z,17.97
2023-02-15T13:44:55.598Z,20.10
2023-02-15T13:47:29.350Z,20.10
2023-02-15T13:50:19.003Z,19.93
2023-02-15T13:52:59.188Z,20.37
2023-02-15T13:55:42.589Z,19.27
2023-02-15T13:58:41.420Z,21.63
2023-02-15T14:01:13.473Z,21.53
2023-02-15T14:04:12.959Z,19.67
2023-02-15T14:07:01.737Z,21.37
2023-02-15T14:09:46.898Z,18.83
2023-02-15T14:12:36.584Z,16.57
2023-02-15T14:15:20.415Z,17.43
2023-02-15T14:18:00.118Z,16.40
2023-02-15T14:20:43.253Z,18.10
2023-02-15T14:23:30.678Z,16.90
2023-02-15T14:26:06.800Z,16.83
2023-02-15T14:28:45.849Z,17.87
2023-02-15T14:31:17.723Z,18.00
2023-02-15T14:33:56.981Z,20.47
2023-02-15T14:36:27.656Z,19.60
2023-02-15T14:39:29.233Z,20.50
2023-02-15T14:42:03.482Z,18.90
2023-02-15T14:44:38.914Z,18.83
2023-02-15T14:47:12.479Z,17.13
2023-02-15T14:49:42.756Z,20.00
2023-02-15T14:52:13.073Z,17.70
2023-02-15T14:55:01.375Z,19.23
2023-02-15T14:57:36.453Z,17.60
2023-02-15T15:00:33.369Z,18.30
2023-02-15T15:03:03.569Z,18.20
2023-02-15T15:05:37.013Z,16.50
2023-02-15T15:08:07.722Z,17.80
2023-02-15T15:10:43.710Z,19.37
2023-02-15T15:13:40.099Z,18.80
2023-02-15T15:16:45.756Z,17.53
2023-02-15T15:19:50.724Z,19.57
2023-02-15T15:22:23.018Z,19.90
2023-02-15T15:24:56.794Z,17.73
2023-02-15T15:27:47.202Z,17.50
2023-02-15T15:31:04.489Z,17.60
2023-02-15T15:34:25.329Z,19.43
2023-02-15T15:37:33.998Z,17.60
2023-02-15T15:40:57.573Z,19.87
2023-02-15T15:44:22.239Z,18.00
2023-02-15T15:47:12.980Z,18.13
2023-02-15T15:49:42.613Z,16.83
2023-02-15T15:52:17.412Z,18.10
2023-02-15T15:54:48.996Z,16.80
2023-02-15T15:57:26.846Z,17.83
2023-02-15T16:00:00.077Z,18.02
2023-02-15T16:02:30.156Z,18.95
2023-02-15T16:05:09.981Z,18.75
2023-02-15T16:07:43.209Z,19.70
2023-02-15T16:10:24.964Z,22.63
2023-02-15T16:12:55.681Z,20.90
2023-02-15T16:15:27.620Z,19.85
2023-02-15T16:17:59.690Z,19.60
2023-02-15T16:20:31.676Z,22.83
2023-02-15T16:23:23.614Z,21.55
2023-02-15T16:26:04.029Z,20.15
2023-02-15T16:28:33.607Z,20.00
2023-02-15T16:31:13.396Z,20.02
2023-02-15T16:33:45.878Z,22.95
2023-02-15T16:36:24.895Z,21.15
2023-02-15T16:39:10.026Z,22.42
2023-02-15T16:41:40.046Z,19.38
2023-02-15T16:44:16.653Z,21.08
2023-02-15T16:46:50.695Z,22.27
2023-02-15T16:49:24.583Z,23.52
2023-02-15T16:51:59.753Z,21.73
2023-02-15T16:54:32.347Z,21.15
2023-02-15T16:57:01.768Z,20.60
2023-02-15T16:59:36.677Z,22.50
2023-02-15T17:02:37.289Z,21.65
2023-02-15T17:05:18.861Z,20.75
2023-02-15T17:08:18.579Z,20.42
2023-02-15T17:11:05.446Z,23.48
2023-02-15T17:13:35.532Z,20.75
2023-02-15T17:16:31.961Z,20.95
2023-02-15T17:19:06.483Z,20.95
2023-02-15T17:21:40.386Z,21.27
2023-02-15T17:24:18.366Z,22.17
2023-02-15T17:26:55.406Z,22.27
2023-02-15T17:29:40.286Z,21.80
2023-02-15T17:32:20.405Z,25.13
2023-02-15T17:35:04.691Z,29.15
2023-02-15T17:37:46.547Z,28.65
2023-02-15T17:40:26.201Z,26.20
2023-02-15T17:42:59.397Z,24.88
2023-02-15T17:45:34.949Z,31.27
2023-02-15T17:48:08.877Z,32.63
2023-02-15T17:50:42.957Z,27.35
2023-02-15T17:53:14.442Z,27.55
2023-02-15T17:55:45.034Z,28.52
2023-02-15T17:58:19.908Z,26.25
2023-02-15T18:01:10.954Z,27.70
2023-02-15T18:04:04.727Z,27.08
2023-02-15T18:06:55.007Z,28.80
2023-02-15T18:09:44.265Z,26.05
2023-02-15T18:12:23.593Z,28.67
2023-02-15T18:14:55.186Z,26.20
2023-02-15T18:17:31.429Z,24.98
2023-02-15T18:20:06.053Z,29.52
2023-02-15T18:22:38.714Z,28.50
2023-02-15T18:25:14.305Z,29.50
2023-02-15T18:27:45.059Z,30.30
2023-02-15T18:30:20.769Z,28.27
2023-02-15T18:32:53.313Z,29.95
2023-02-15T18:35:28.704Z,28.75
2023-02-15T18:38:02.637Z,27.05
2023-02-15T18:40:34.334Z,27.15
2023-02-15T18:43:04.658Z,110.65
2023-02-15T18:45:36.886Z,45.03
2023-02-15T18:48:08.688Z,36.38
2023-02-15T18:50:40.319Z,33.30
2023-02-15T18:53:19.943Z,30.33
2023-02-15T18:55:52.061Z,32.30
2023-02-15T18:58:26.684Z,31.75
2023-02-15T19:00:59.172Z,30.80
2023-02-15T19:03:32.211Z,30.45
2023-02-15T19:06:07.803Z,30.85
2023-02-15T19:08:42.220Z,32.78
2023-02-15T19:11:20.313Z,30.95
2023-02-15T19:13:53.542Z,29.05
2023-02-15T19:16:32.215Z,32.55
2023-02-15T19:19:04.500Z,30.20
2023-02-15T19:21:36.907Z,32.55
2023-02-15T19:24:16.039Z,27.67
2023-02-15T19:26:47.878Z,33.97
2023-02-15T19:29:26.783Z,31.50
2023-02-15T19:31:58.531Z,29.98
2023-02-15T19:34:30.765Z,32.40
2023-02-15T19:37:03.598Z,32.97
2023-02-15T19:39:43.041Z,30.88
2023-02-15T19:42:17.855Z,30.02
2023-02-15T19:44:50.505Z,31.98
2023-02-15T19:47:22.696Z,32.33
2023-02-15T19:49:53.406Z,32.58
2023-02-15T19:52:26.077Z,29.77
2023-02-15T19:55:00.488Z,27.15
2023-02-15T19:57:32.912Z,31.02
2023-02-15T20:00:20.893Z,32.55
2023-02-15T20:02:52.371Z,29.60
2023-02-15T20:05:26.246Z,34.67
2023-02-15T20:08:01.223Z,30.63
2023-02-15T20:10:34.377Z,33.97
2023-02-15T20:13:06.566Z,34.40
2023-02-15T20:15:40.317Z,70.70
2023-02-15T20:18:11.986Z,41.75
2023-02-15T20:20:45.643Z,34.17
2023-02-15T20:23:25.150Z,33.17
2023-02-15T20:26:02.127Z,33.95
2023-02-15T20:28:33.817Z,33.55
2023-02-15T20:31:14.586Z,34.05
2023-02-15T20:33:46.050Z,32.03
2023-02-15T20:36:22.190Z,36.20
2023-02-15T20:38:55.396Z,35.88
2023-02-15T20:41:48.472Z,33.40
2023-02-15T20:44:25.407Z,33.78
2023-02-15T20:46:59.558Z,35.10
2023-02-15T20:49:31.236Z,39.90
2023-02-15T20:52:09.584Z,34.25
2023-02-15T20:54:40.857Z,38.20
2023-02-15T20:57:15.144Z,37.22
2023-02-15T20:59:46.435Z,34.88
2023-02-15T21:02:22.606Z,39.38
2023-02-15T21:04:55.366Z,38.40
2023-02-15T21:07:34.184Z,37.88
2023-02-15T21:10:08.150Z,40.08
2023-02-15T21:12:43.736Z,37.13
2023-02-15T21:15:32.118Z,36.33
2023-02-15T21:18:06.724Z,36.13
2023-02-15T21:20:53.251Z,34.38
2023-02-15T21:23:28.536Z,36.35
2023-02-15T21:26:25.041Z,36.03
2023-02-15T21:28:59.875Z,33.15
2023-02-15T21:31:31.937Z,32.85
2023-02-15T21:34:06.212Z,34.70
2023-02-15T21:36:39.212Z,34.20
2023-02-15T21:39:17.131Z,38.53
2023-02-15T21:42:06.999Z,40.67
2023-02-15T21:44:57.450Z,36.53
2023-02-15T21:47:47.582Z,37.33
2023-02-15T21:50:40.868Z,37.70
2023-02-15T21:53:15.468Z,36.33
2023-02-15T21:55:49.898Z,38.60
2023-02-15T21:58:24.501Z,35.78
2023-02-15T22:00:59.330Z,47.10
2023-02-15T22:03:35.251Z,37.13
2023-02-15T22:06:16.432Z,35.88
2023-02-15T22:09:18.158Z,36.08
2023-02-15T22:11:51.421Z,34.90
2023-02-15T22:14:40.720Z,35.33
2023-02-15T22:17:20.101Z,37.15
2023-02-15T22:19:55.054Z,39.47
2023-02-15T22:22:28.518Z,37.40
2023-02-15T22:24:59.563Z,35.95
2023-02-15T22:27:42.971Z,36.28
2023-02-15T22:30:30.642Z,38.40
2023-02-15T22:33:11.096Z,36.40
2023-02-15T22:35:44.820Z,40.28
2023-02-15T22:38:18.269Z,38.25
2023-02-15T22:40:52.185Z,34.33
2023-02-15T22:43:40.653Z,37.45
2023-02-15T22:46:19.145Z,35.13
2023-02-15T22:48:53.091Z,36.38
2023-02-15T22:51:27.649Z,36.85
2023-02-15T22:54:01.290Z,36.00
2023-02-15T22:56:44.740Z,34.55
2023-02-15T22:59:22.942Z,36.30
2023-02-15T23:01:55.903Z,36.58
2023-02-15T23:04:33.233Z,35.42
2023-02-15T23:07:03.724Z,35.03
2023-02-15T23:09:35.353Z,34.90
2023-02-15T23:12:08.855Z,33.70
2023-02-15T23:14:45.760Z,35.53
2023-02-15T23:17:16.495Z,34.50
2023-02-15T23:19:51.884Z,30.85
2023-02-15T23:22:24.024Z,30.95
2023-02-15T23:24:56.031Z,31.60
2023-02-15T23:27:44.914Z,30.35
2023-02-15T23:30:20.089Z,33.63
2023-02-15T23:32:52.269Z,32.08
2023-02-15T23:35:26.209Z,33.25
2023-02-15T23:37:56.513Z,32.90
2023-02-15T23:40:45.309Z,32.05
2023-02-15T23:43:24.707Z,34.05
2023-02-15T23:45:55.467Z,29.98
2023-02-15T23:48:32.039Z,32.50
2023-02-15T23:51:13.310Z,29.40
2023-02-15T23:53:44.968Z,29.73
2023-02-15T23:56:17.013Z,32.60
2023-02-15T23:58:49.349Z,29.38
